createdAt,value
2023-04-02T00:02:29.634Z,2.88
2023-04-02T00:05:18.520Z,2.30
2023-04-02T00:07:51.790Z,2.38
2023-04-02T00:10:29.233Z,2.58
2023-04-02T00:13:05.514Z,2.42
2023-04-02T00:15:33.490Z,2.53
2023-04-02T00:18:05.146Z,2.40
2023-04-02T00:20:40.144Z,2.63
2023-04-02T00:23:07.221Z,2.50
2023-04-02T00:25:39.057Z,2.30
2023-04-02T00:28:05.613Z,2.50
2023-04-02T00:30:32.306Z,2.20
2023-04-02T00:32:59.459Z,3.25
2023-04-02T00:35:28.326Z,3.22
2023-04-02T00:37:56.537Z,2.53
2023-04-02T00:40:29.070Z,2.50
2023-04-02T00:42:59.405Z,3.10
2023-04-02T00:45:30.333Z,2.40
2023-04-02T00:47:59.901Z,2.70
2023-04-02T00:50:39.119Z,2.30
2023-04-02T00:53:16.331Z,2.00
2023-04-02T00:55:43.860Z,2.53
2023-04-02T00:58:26.909Z,1.88
2023-04-02T01:00:54.390Z,2.03
2023-04-02T01:03:22.985Z,2.58
2023-04-02T01:05:56.128Z,1.92
2023-04-02T01:08:44.204Z,2.05
2023-04-02T01:11:39.913Z,2.10
2023-04-02T01:14:34.685Z,2.25
2023-04-02T01:17:20.525Z,2.13
2023-04-02T01:20:25.662Z,2.20
2023-04-02T01:23:18.163Z,2.25
2023-04-02T01:25:57.012Z,2.03
2023-04-02T01:28:35.294Z,2.53
2023-04-02T01:31:04.930Z,1.88
2023-04-02T01:33:35.240Z,2.00
2023-04-02T01:36:32.272Z,2.20
2023-04-02T01:41:40.010Z,2.03
2023-04-02T01:44:09.655Z,1.80
2023-04-02T01:46:41.467Z,1.90
2023-04-02T01:51:47.482Z,2.00
2023-04-02T01:54:16.776Z,2.20
2023-04-02T01:56:44.337Z,2.03
2023-04-02T01:59:13.352Z,2.20
2023-04-02T02:01:49.114Z,2.38
2023-04-02T02:04:17.780Z,2.20
2023-04-02T02:06:45.855Z,2.13
2023-04-02T02:09:19.322Z,1.98
2023-04-02T02:11:48.999Z,1.65
2023-04-02T02:14:19.159Z,2.25
2023-04-02T02:16:46.835Z,2.03
2023-04-02T02:19:45.277Z,2.10
2023-04-02T02:22:28.505Z,2.10
2023-04-02T02:24:56.791Z,2.25
2023-04-02T02:27:23.235Z,1.55
2023-04-02T02:29:54.520Z,1.98
2023-04-02T02:32:25.899Z,2.08
2023-04-02T02:35:01.380Z,1.60
2023-04-02T02:37:36.790Z,1.75
2023-04-02T02:40:09.946Z,1.70
2023-04-02T02:42:41.208Z,1.85
2023-04-02T02:45:15.949Z,1.80
2023-04-02T02:47:45.251Z,1.45
2023-04-02T02:50:21.028Z,1.77
2023-04-02T02:52:52.789Z,1.85
2023-04-02T02:55:24.064Z,1.70
2023-04-02T02:57:55.452Z,1.70
2023-04-02T03:00:24.899Z,1.83
2023-04-02T03:02:56.687Z,1.58
2023-04-02T03:05:26.320Z,1.67
2023-04-02T03:07:55.507Z,1.60
2023-04-02T03:10:34.219Z,1.52
2023-04-02T03:13:12.476Z,2.10
2023-04-02T03:18:52.962Z,1.70
2023-04-02T03:21:35.190Z,1.95
2023-04-02T03:24:05.963Z,2.58
2023-04-02T03:26:42.926Z,1.90
2023-04-02T03:29:18.569Z,2.03
2023-04-02T03:31:49.395Z,2.28
2023-04-02T03:34:23.697Z,1.75
2023-04-02T03:36:57.865Z,1.80
2023-04-02T03:39:41.428Z,1.75
2023-04-02T03:42:22.882Z,1.90
2023-04-02T03:44:56.437Z,1.80
2023-04-02T03:47:33.501Z,1.80
2023-04-02T03:50:08.083Z,1.50
2023-04-02T03:52:37.413Z,1.77
2023-04-02T03:55:17.401Z,2.13
2023-04-02T03:58:01.737Z,1.70
2023-04-02T04:00:44.777Z,1.95
2023-04-02T04:03:25.038Z,1.75
2023-04-02T04:06:05.747Z,1.80
2023-04-02T04:08:43.874Z,2.00
2023-04-02T04:11:15.568Z,1.73
2023-04-02T04:13:55.944Z,2.30
2023-04-02T04:16:28.105Z,1.83
2023-04-02T04:19:08.385Z,1.55
2023-04-02T04:21:37.958Z,1.58
2023-04-02T04:24:16.925Z,1.50
2023-04-02T04:27:04.535Z,2.17
2023-04-02T04:29:49.622Z,1.40
2023-04-02T04:32:34.695Z,1.80
2023-04-02T04:35:28.684Z,1.42
2023-04-02T04:38:07.809Z,1.65
2023-04-02T04:40:37.391Z,1.38
2023-04-02T04:43:11.216Z,1.80
2023-04-02T04:45:43.877Z,1.25
2023-04-02T04:48:17.697Z,1.30
2023-04-02T04:51:02.517Z,1.45
2023-04-02T04:53:30.698Z,1.60
2023-04-02T04:56:12.498Z,1.60
2023-04-02T04:58:57.801Z,1.90
2023-04-02T05:01:33.817Z,1.50
2023-04-02T05:04:15.151Z,1.38
2023-04-02T05:07:16.624Z,1.85
2023-04-02T05:09:52.119Z,1.40
2023-04-02T05:12:44.091Z,1.55
2023-04-02T05:15:17.862Z,1.45
2023-04-02T05:18:12.331Z,1.60
2023-04-02T05:21:03.997Z,1.70
2023-04-02T05:23:54.398Z,1.48
2023-04-02T05:26:23.858Z,1.50
2023-04-02T05:29:06.573Z,2.08
2023-04-02T05:31:43.289Z,1.60
2023-04-02T05:34:13.053Z,1.95
2023-04-02T05:36:39.989Z,1.30
2023-04-02T05:39:11.131Z,1.45
2023-04-02T05:41:47.113Z,1.85
2023-04-02T05:44:30.230Z,1.48
2023-04-02T05:46:59.579Z,1.85
2023-04-02T05:49:29.830Z,1.38
2023-04-02T05:52:01.098Z,1.40
2023-04-02T05:54:34.092Z,1.33
2023-04-02T05:57:04.795Z,1.27
2023-04-02T05:59:40.863Z,1.65
2023-04-02T06:02:25.857Z,1.17
2023-04-02T06:05:01.571Z,1.30
2023-04-02T06:07:35.076Z,1.20
2023-04-02T06:10:29.495Z,1.38
2023-04-02T06:13:03.920Z,1.05
2023-04-02T06:15:32.352Z,1.40
2023-04-02T06:18:08.824Z,0.80
2023-04-02T06:20:35.943Z,1.23
2023-04-02T06:23:24.457Z,1.13
2023-04-02T06:26:02.076Z,1.00
2023-04-02T06:28:36.393Z,1.00
2023-04-02T06:31:11.126Z,1.23
2023-04-02T06:33:39.682Z,1.30
2023-04-02T06:36:09.182Z,1.17
2023-04-02T06:38:36.457Z,1.38
2023-04-02T06:41:10.032Z,1.20
2023-04-02T06:43:45.450Z,2.05
2023-04-02T06:46:20.634Z,1.80
2023-04-02T06:48:50.919Z,1.60
2023-04-02T06:51:20.882Z,1.30
2023-04-02T06:53:49.217Z,1.35
2023-04-02T06:56:43.543Z,1.10
2023-04-02T06:59:10.401Z,1.00
2023-04-02T07:01:48.997Z,1.52
2023-04-02T07:04:16.413Z,1.13
2023-04-02T07:06:43.092Z,1.65
2023-04-02T07:09:09.686Z,1.63
2023-04-02T07:11:36.359Z,1.58
2023-04-02T07:14:03.839Z,1.63
2023-04-02T07:16:32.864Z,1.42
2023-04-02T07:19:00.106Z,1.35
2023-04-02T07:21:27.829Z,1.63
2023-04-02T07:23:58.396Z,1.05
2023-04-02T07:26:27.877Z,1.63
2023-04-02T07:28:55.972Z,1.15
2023-04-02T07:31:28.069Z,1.38
2023-04-02T07:33:59.137Z,1.30
2023-04-02T07:36:27.254Z,1.55
2023-04-02T07:38:54.026Z,1.60
2023-04-02T07:41:21.120Z,1.50
2023-04-02T07:43:47.889Z,1.30
2023-04-02T07:46:16.836Z,1.23
2023-04-02T07:48:44.737Z,1.50
2023-04-02T07:51:20.608Z,1.40
2023-04-02T07:53:54.123Z,1.10
2023-04-02T07:56:21.048Z,1.40
2023-04-02T07:58:47.827Z,1.23
2023-04-02T08:01:17.290Z,1.05
2023-04-02T08:03:44.205Z,1.30
2023-04-02T08:06:12.656Z,1.30
2023-04-02T08:08:39.246Z,1.33
2023-04-02T08:11:06.067Z,1.25
2023-04-02T08:13:33.226Z,1.20
2023-04-02T08:16:02.283Z,1.10
2023-04-02T08:18:30.232Z,1.17
2023-04-02T08:20:57.598Z,1.20
2023-04-02T08:23:31.563Z,1.20
2023-04-02T08:25:58.647Z,1.25
2023-04-02T08:28:25.208Z,0.85
2023-04-02T08:30:52.641Z,0.98
2023-04-02T08:33:19.744Z,1.17
2023-04-02T08:35:47.906Z,1.00
2023-04-02T08:38:17.110Z,1.17
2023-04-02T08:40:59.710Z,1.10
2023-04-02T08:44:00.392Z,0.90
2023-04-02T08:46:40.275Z,0.93
2023-04-02T08:49:17.713Z,1.10
2023-04-02T08:51:45.764Z,0.90
2023-04-02T08:54:21.714Z,1.20
2023-04-02T08:56:55.697Z,1.02
2023-04-02T08:59:34.523Z,1.00
2023-04-02T09:02:28.362Z,1.20
2023-04-02T09:04:57.956Z,1.20
2023-04-02T09:07:30.726Z,0.90
2023-04-02T09:09:58.207Z,1.40
2023-04-02T09:12:29.161Z,1.02
2023-04-02T09:15:12.254Z,1.10
2023-04-02T09:17:53.188Z,1.00
2023-04-02T09:20:29.263Z,0.85
2023-04-02T09:22:59.974Z,1.00
2023-04-02T09:25:32.720Z,0.90
2023-04-02T09:28:02.993Z,1.10
2023-04-02T09:30:32.242Z,1.10
2023-04-02T09:33:02.534Z,1.00
2023-04-02T09:35:34.962Z,0.80
2023-04-02T09:38:17.732Z,0.98
2023-04-02T09:40:57.201Z,0.88
2023-04-02T09:43:28.723Z,0.98
2023-04-02T09:46:13.670Z,1.00
2023-04-02T09:48:56.694Z,1.00
2023-04-02T09:51:28.710Z,1.23
2023-04-02T09:54:06.698Z,1.02
2023-04-02T09:57:02.931Z,0.95
2023-04-02T09:59:29.841Z,1.10
2023-04-02T10:01:56.829Z,1.05
2023-04-02T10:04:44.954Z,1.00
2023-04-02T10:07:53.010Z,1.30
2023-04-02T10:10:26.310Z,1.30
2023-04-02T10:13:01.770Z,1.27
2023-04-02T10:15:51.771Z,1.05
2023-04-02T10:18:30.702Z,0.90
2023-04-02T10:21:00.507Z,0.80
2023-04-02T10:23:30.607Z,1.17
2023-04-02T10:26:26.055Z,1.27
2023-04-02T10:29:14.244Z,1.05
2023-04-02T10:32:06.889Z,1.02
2023-04-02T10:34:43.175Z,1.02
2023-04-02T10:37:49.288Z,1.30
2023-04-02T10:40:28.364Z,1.30
2023-04-02T10:43:30.862Z,1.13
2023-04-02T10:48:39.395Z,1.50
2023-04-02T10:51:29.896Z,1.05
2023-04-02T10:54:12.452Z,1.00
2023-04-02T10:56:49.903Z,1.00
2023-04-02T10:59:26.178Z,0.82
2023-04-02T11:01:57.344Z,1.08
2023-04-02T11:07:13.888Z,1.00
2023-04-02T11:09:44.125Z,0.93
2023-04-02T11:12:23.256Z,1.10
2023-04-02T11:14:51.744Z,1.38
2023-04-02T11:17:18.994Z,1.10
2023-04-02T11:19:45.633Z,1.20
2023-04-02T11:22:21.183Z,1.42
2023-04-02T11:24:49.738Z,1.00
2023-04-02T11:27:31.387Z,0.90
2023-04-02T11:30:25.533Z,1.05
2023-04-02T11:32:52.186Z,1.05
2023-04-02T11:35:30.893Z,1.48
2023-04-02T11:38:09.764Z,1.20
2023-04-02T11:40:52.116Z,1.20
2023-04-02T11:43:34.100Z,1.08
2023-04-02T11:46:27.169Z,1.00
2023-04-02T11:49:00.922Z,1.25
2023-04-02T11:51:48.151Z,1.15
2023-04-02T11:54:28.106Z,1.20
2023-04-02T11:57:05.511Z,0.90
2023-04-02T12:02:33.174Z,1.10
2023-04-02T12:05:37.103Z,1.00
2023-04-02T12:08:19.840Z,1.15
2023-04-02T12:10:54.329Z,1.00
2023-04-02T12:13:42.173Z,1.65
2023-04-02T12:16:10.928Z,1.00
2023-04-02T12:18:46.916Z,1.27
2023-04-02T12:21:20.901Z,0.90
2023-04-02T12:23:49.259Z,1.00
2023-04-02T12:26:47.870Z,1.25
2023-04-02T12:29:25.515Z,0.90
2023-04-02T12:31:57.355Z,1.00
2023-04-02T12:34:26.523Z,1.00
2023-04-02T12:37:07.333Z,0.80
2023-04-02T12:39:35.449Z,0.90
2023-04-02T12:42:01.980Z,0.88
2023-04-02T12:44:30.556Z,1.00
2023-04-02T12:46:58.409Z,1.00
2023-04-02T12:49:39.015Z,1.00
2023-04-02T12:52:17.887Z,1.20
2023-04-02T12:54:47.890Z,0.98
2023-04-02T12:57:33.746Z,0.65
2023-04-02T13:00:06.628Z,0.80
2023-04-02T13:02:45.874Z,0.98
2023-04-02T13:05:13.108Z,0.73
2023-04-02T13:07:43.766Z,0.90
2023-04-02T13:10:26.038Z,0.70
2023-04-02T13:12:58.105Z,0.90
2023-04-02T13:15:31.989Z,1.10
2023-04-02T13:18:12.171Z,0.88
2023-04-02T13:20:40.814Z,1.10
2023-04-02T13:23:32.290Z,0.98
2023-04-02T13:26:01.475Z,0.77
2023-04-02T13:28:30.209Z,0.70
2023-04-02T13:31:00.833Z,0.80
2023-04-02T13:33:27.411Z,1.02
2023-04-02T13:35:54.264Z,0.90
2023-04-02T13:38:21.501Z,0.82
2023-04-02T13:40:48.262Z,0.70
2023-04-02T13:43:20.284Z,0.80
2023-04-02T13:45:51.466Z,0.50
2023-04-02T13:48:18.453Z,0.90
2023-04-02T13:50:47.024Z,1.00
2023-04-02T13:53:21.994Z,0.93
2023-04-02T13:55:49.495Z,0.90
2023-04-02T13:58:19.164Z,0.90
2023-04-02T14:00:52.089Z,0.93
2023-04-02T14:03:22.312Z,1.02
2023-04-02T14:06:08.465Z,0.80
2023-04-02T14:08:59.970Z,0.90
2023-04-02T14:11:37.187Z,0.80
2023-04-02T14:14:20.130Z,0.77
2023-04-02T14:16:49.876Z,0.88
2023-04-02T14:19:38.399Z,1.10
2023-04-02T14:22:20.983Z,1.10
2023-04-02T14:25:03.229Z,1.05
2023-04-02T14:27:47.854Z,1.27
2023-04-02T14:30:31.417Z,1.00
2023-04-02T14:33:24.479Z,1.52
2023-04-02T14:35:59.960Z,1.10
2023-04-02T14:38:53.811Z,1.25
2023-04-02T14:41:42.943Z,0.80
2023-04-02T14:44:11.645Z,0.98
2023-04-02T14:46:39.900Z,0.90
2023-04-02T14:49:21.509Z,0.90
2023-04-02T14:51:57.778Z,0.95
2023-04-02T14:54:38.682Z,0.93
2023-04-02T14:57:37.507Z,0.73
2023-04-02T15:00:21.072Z,0.90
2023-04-02T15:02:55.870Z,1.00
2023-04-02T15:05:42.332Z,1.02
2023-04-02T15:08:31.074Z,1.15
2023-04-02T15:11:18.155Z,0.80
2023-04-02T15:14:02.396Z,1.02
2023-04-02T15:16:29.141Z,1.00
2023-04-02T15:18:57.471Z,0.80
2023-04-02T15:21:58.639Z,0.90
2023-04-02T15:27:21.824Z,0.80
2023-04-02T15:29:55.702Z,1.02
2023-04-02T15:32:38.217Z,0.90
2023-04-02T15:35:11.016Z,0.90
2023-04-02T15:38:13.381Z,0.88
2023-04-02T15:41:23.560Z,1.27
2023-04-02T15:44:03.704Z,0.82
2023-04-02T15:47:04.195Z,1.13
2023-04-02T15:49:46.608Z,0.73
2023-04-02T15:52:24.697Z,1.30
2023-04-02T15:55:17.452Z,0.80
2023-04-02T15:58:20.068Z,1.58
2023-04-02T16:01:08.700Z,0.95
2023-04-02T16:04:13.106Z,0.90
2023-04-02T16:07:17.304Z,0.90
2023-04-02T16:09:55.392Z,0.80
2023-04-02T16:12:21.904Z,1.02
2023-04-02T16:14:49.467Z,1.25
2023-04-02T16:17:25.829Z,0.65
2023-04-02T16:19:56.914Z,0.70
2023-04-02T16:22:29.091Z,0.95
2023-04-02T16:25:05.278Z,0.98
2023-04-02T16:27:43.192Z,1.00
2023-04-02T16:32:42.215Z,1.10
2023-04-02T16:35:46.743Z,0.85
2023-04-02T16:38:44.061Z,1.30
2023-04-02T16:41:42.537Z,0.85
2023-04-02T16:44:20.961Z,0.80
2023-04-02T16:46:58.461Z,0.93
2023-04-02T16:49:43.647Z,1.15
2023-04-02T16:52:45.671Z,0.88
2023-04-02T16:55:23.516Z,1.00
2023-04-02T16:58:05.974Z,0.90
2023-04-02T17:00:44.338Z,0.85
2023-04-02T17:03:28.284Z,0.70
2023-04-02T17:06:13.526Z,0.85
2023-04-02T17:08:47.180Z,1.20
2023-04-02T17:11:23.915Z,1.13
2023-04-02T17:14:19.082Z,0.80
2023-04-02T17:16:50.403Z,1.02
2023-04-02T17:19:20.964Z,1.00
2023-04-02T17:21:53.593Z,0.90
2023-04-02T17:24:35.918Z,0.70
2023-04-02T17:27:22.195Z,1.10
2023-04-02T17:29:57.858Z,0.77
2023-04-02T17:32:46.058Z,0.93
2023-04-02T17:35:32.378Z,1.02
2023-04-02T17:38:12.867Z,1.20
2023-04-02T17:41:13.515Z,0.93
2023-04-02T17:43:55.114Z,0.90
2023-04-02T17:46:54.848Z,0.82
2023-04-02T17:49:30.931Z,1.20
2023-04-02T17:52:24.297Z,1.00
2023-04-02T17:55:21.121Z,1.33
2023-04-02T17:58:01.686Z,1.08
2023-04-02T18:00:56.265Z,1.45
2023-04-02T18:03:45.718Z,1.00
2023-04-02T18:06:22.086Z,1.20
2023-04-02T18:09:06.950Z,1.00
2023-04-02T18:12:05.122Z,1.30
2023-04-02T18:14:56.026Z,1.20
2023-04-02T18:17:39.061Z,1.17
2023-04-02T18:20:21.898Z,1.35
2023-04-02T18:22:56.920Z,0.98
2023-04-02T18:25:43.100Z,1.35
2023-04-02T18:28:27.725Z,0.90
2023-04-02T18:31:01.907Z,1.30
2023-04-02T18:33:48.394Z,1.23
2023-04-02T18:36:29.874Z,1.20
2023-04-02T18:39:01.984Z,0.88
2023-04-02T18:41:43.269Z,0.88
2023-04-02T18:44:20.861Z,1.15
2023-04-02T18:46:54.324Z,1.00
2023-04-02T18:49:28.833Z,1.00
2023-04-02T18:52:00.136Z,1.10
2023-04-02T18:54:32.379Z,1.30
2023-04-02T18:57:01.264Z,1.25
2023-04-02T18:59:53.815Z,1.02
2023-04-02T19:02:44.062Z,1.17
2023-04-02T19:05:22.068Z,1.10
2023-04-02T19:07:54.494Z,1.35
2023-04-02T19:10:34.277Z,1.10
2023-04-02T19:13:01.494Z,1.08
2023-04-02T19:16:19.821Z,0.80
2023-04-02T19:18:56.409Z,1.13
2023-04-02T19:22:18.050Z,1.00
2023-04-02T19:25:25.414Z,1.23
2023-04-02T19:28:28.051Z,1.10
2023-04-02T19:32:00.094Z,1.00
2023-04-02T19:34:58.859Z,1.00
2023-04-02T19:37:40.073Z,1.38
2023-04-02T19:40:31.527Z,0.90
2023-04-02T19:42:58.524Z,1.00
2023-04-02T19:45:39.743Z,1.30
2023-04-02T19:48:18.978Z,1.15
2023-04-02T19:50:46.428Z,1.00
2023-04-02T19:53:14.649Z,1.02
2023-04-02T19:55:43.423Z,1.27
2023-04-02T19:58:27.686Z,1.20
2023-04-02T20:00:55.465Z,0.88
2023-04-02T20:03:23.185Z,1.30
2023-04-02T20:05:50.606Z,1.00
2023-04-02T20:08:17.333Z,1.00
2023-04-02T20:10:45.135Z,0.90
2023-04-02T20:13:12.276Z,0.90
2023-04-02T20:15:42.160Z,1.20
2023-04-02T20:18:10.677Z,0.93
2023-04-02T20:20:39.460Z,1.20
2023-04-02T20:23:06.541Z,1.23
2023-04-02T20:25:33.973Z,1.27
2023-04-02T20:28:03.162Z,1.23
2023-04-02T20:30:34.298Z,0.90
2023-04-02T20:33:01.462Z,1.25
2023-04-02T20:35:30.037Z,1.10
2023-04-02T20:37:56.758Z,0.90
2023-04-02T20:40:27.184Z,1.27
2023-04-02T20:42:53.939Z,0.98
2023-04-02T20:45:21.100Z,1.05
2023-04-02T20:47:49.546Z,0.90
2023-04-02T20:50:16.920Z,1.27
2023-04-02T20:52:45.881Z,1.00
2023-04-02T20:55:13.746Z,1.00
2023-04-02T20:57:44.175Z,1.23
2023-04-02T21:00:18.369Z,1.30
2023-04-02T21:02:45.262Z,0.85
2023-04-02T21:05:14.973Z,0.98
2023-04-02T21:07:41.833Z,1.10
2023-04-02T21:10:08.956Z,0.93
2023-04-02T21:12:35.622Z,1.30
2023-04-02T21:15:03.552Z,0.90
2023-04-02T21:17:30.746Z,1.13
2023-04-02T21:19:57.616Z,0.98
2023-04-02T21:22:25.718Z,1.15
2023-04-02T21:24:52.911Z,0.93
2023-04-02T21:27:20.984Z,1.10
2023-04-02T21:29:47.823Z,1.42
2023-04-02T21:32:21.631Z,1.17
2023-04-02T21:34:49.928Z,0.98
2023-04-02T21:37:16.474Z,1.00
2023-04-02T21:39:44.188Z,1.40
2023-04-02T21:42:11.787Z,1.05
2023-04-02T21:44:38.503Z,1.10
2023-04-02T21:47:06.767Z,1.10
2023-04-02T21:49:33.668Z,1.08
2023-04-02T21:52:00.344Z,0.73
2023-04-02T21:54:27.151Z,0.93
2023-04-02T21:56:54.037Z,0.93
2023-04-02T21:59:20.986Z,0.90
2023-04-02T22:01:50.089Z,0.80
2023-04-02T22:04:26.702Z,1.10
2023-04-02T22:06:53.522Z,1.05
2023-04-02T22:09:23.677Z,1.00
2023-04-02T22:11:54.715Z,0.90
2023-04-02T22:14:22.154Z,0.90
2023-04-02T22:16:49.101Z,1.23
2023-04-02T22:19:17.573Z,0.80
2023-04-02T22:21:44.437Z,1.00
2023-04-02T22:24:16.132Z,0.88
2023-04-02T22:26:44.478Z,0.93
2023-04-02T22:29:11.388Z,0.90
2023-04-02T22:31:38.636Z,1.20
2023-04-02T22:34:06.160Z,0.90
2023-04-02T22:36:33.968Z,1.20
2023-04-02T22:39:01.770Z,0.77
2023-04-02T22:41:32.172Z,0.98
2023-04-02T22:44:00.579Z,1.10
2023-04-02T22:46:28.610Z,0.90
2023-04-02T22:48:56.285Z,1.08
2023-04-02T22:51:25.688Z,0.80
2023-04-02T22:53:54.231Z,1.20
2023-04-02T22:56:26.064Z,1.00
2023-04-02T22:58:54.134Z,0.90
2023-04-02T23:01:28.249Z,0.88
2023-04-02T23:03:56.171Z,1.30
2023-04-02T23:06:24.359Z,1.10
2023-04-02T23:08:51.986Z,1.27
2023-04-02T23:11:22.353Z,1.00
2023-04-02T23:13:50.985Z,1.00
2023-04-02T23:16:18.296Z,0.93
2023-04-02T23:18:48.159Z,0.85
2023-04-02T23:21:16.044Z,1.30
2023-04-02T23:23:43.301Z,1.50
2023-04-02T23:26:15.683Z,0.80
2023-04-02T23:28:44.511Z,0.75
2023-04-02T23:31:14.160Z,1.80
2023-04-02T23:33:41.338Z,0.80
2023-04-02T23:36:20.663Z,1.10
2023-04-02T23:38:51.862Z,1.67
2023-04-02T23:41:22.253Z,1.35
2023-04-02T23:43:49.039Z,1.02
2023-04-02T23:46:16.023Z,1.20
2023-04-02T23:48:42.523Z,0.98
2023-04-02T23:51:09.354Z,1.10
2023-04-02T23:53:36.270Z,1.20
2023-04-02T23:56:03.323Z,0.98
2023-04-02T23:58:30.083Z,0.90
